Latest Coastal Weather Observations for Weipa

IDQ60701

Issued at 3:35 am EST Friday 1 August 2014 (issued every 10 minutes, with the page automatically refreshed every 10 minutes)

About coastal observations | Map of coastal stations | Coastal observations for QLD | Marine services | Other Formats
Station Details ID: 027045 Name: WEIPA AERO Lat: -12.68 Lon: 141.92 Height: 17.96 m
Data from the previous 72 hours. | See also: Recent months at Weipa
Date/Time
EST
Temp

°C
Wind Pressure Rain
since 9am
mm
Weather Cloud Vis
km
Sea
Height
m
Swell
Dir
 
Speed
knots
Gust
knots
hPa Trend Height
m
Period
s
Dir
01/03:30am 19.9 SE 2 3 1013.9 - 0.0 - - 10 - - - -
01/03:00am 20.1 S 2 4 1014.1 - 0.0 - - 10 - - - -
01/02:30am 20.8 S 2 3 1014.5 - 0.0 - - 10 - - - -
01/02:00am 21.4 E 4 7 1014.7 - 0.0 - - 10 - - - -
01/01:30am 21.8 E 6 8 1015.0 - 0.0 - - 10 - - - -
01/01:00am 22.1 E 6 9 1015.1 - 0.0 - - 10 - - - -
01/12:30am 22.4 E 7 10 1015.2 - 0.0 - - 10 - - - -
01/12:00am 22.6 E 7 9 1015.1 - 0.0 - - 10 - - - -
 
Date/Time
EST
Temp

°C
Wind Pressure Rain
since 9am
mm
Weather Cloud Vis
km
Sea
Height
m
Swell
Dir
 
Speed
knots
Gust
knots
hPa Trend Height
m
Period
s
Dir
31/11:30pm 22.9 E 5 8 1015.3 - 0.0 - - 10 - - - -
31/11:00pm 23.3 E 4 8 1015.3 - 0.0 - - 10 - - - -
31/10:30pm 23.7 E 4 8 1015.4 - 0.0 - - 10 - - - -
31/10:00pm 24.0 E 5 9 1015.2 - 0.0 - - 10 - - - -
31/09:30pm 24.4 E 7 10 1014.9 - 0.0 - - 10 - - - -
31/09:00pm 24.8 E 5 9 1014.5 - 0.0 - Mostly clear 10 - - - -
31/08:30pm 25.3 E 6 10 1014.4 - 0.0 - - 10 - - - -
31/08:00pm 26.0 E 7 11 1013.9 - 0.0 - Partly cloudy 10 - - - -
31/07:30pm 26.7 E 7 11 1013.4 - 0.0 - Cloudy 10 - - - -
31/07:00pm 27.3 E 10 13 1013.1 - 0.0 - Cloudy 10 - - - -
31/06:30pm 28.3 E 5 10 1012.6 - 0.0 - Cloudy 10 - - - -
31/06:00pm 28.9 E 5 7 1012.3 - 0.0 - - 10 - - - -
31/05:30pm 29.6 E 8 12 1012.3 - 0.0 - Partly cloudy 10 - - - -
31/05:00pm 30.4 SE 7 11 1012.0 - 0.0 - - 10 - - - -
31/04:30pm 30.3 E 11 15 1012.0 - 0.0 - - 10 - - - -
31/04:00pm 30.8 SE 9 16 1011.9 - 0.0 - Partly cloudy 10 - - - -
31/03:30pm 31.0 E 9 15 1011.7 - 0.0 - - 10 - - - -
31/03:00pm 31.3 SE 11 17 1011.9 F 0.0 Smoke Mostly cloudy 30 - - - -
31/02:30pm 31.0 ESE 11 17 1012.4 - 0.0 - Partly cloudy 10 - - - -
31/02:00pm 30.1 ESE 12 18 1012.9 - 0.0 - Partly cloudy 10 - - - -
31/01:30pm 30.1 ESE 11 16 1013.3 - 0.0 - Partly cloudy 10 - - - -
31/01:00pm 29.9 E 11 21 1013.8 - 0.0 - Mostly cloudy 10 - - - -
31/12:30pm 28.3 SE 11 16 1014.2 - 0.0 - Partly cloudy 10 - - - -
31/12:00pm 28.4 E 14 22 1014.7 F 0.0 Smoke Mostly cloudy 35 - - - -
31/11:30am 27.5 E 13 19 1015.3 - 0.0 - Partly cloudy 10 - - - -
31/11:00am 27.2 E 13 20 1015.8 - 0.0 - Mostly cloudy 10 - - - -
31/10:30am 27.5 ENE 11 17 1015.8 - 0.0 - - 10 - - - -
31/10:00am 25.6 E 11 15 1015.9 - 0.0 - Mostly clear 10 - - - -
31/09:30am 24.9 E 11 16 1016.0 - 0.0 - - 10 - - - -
31/09:00am 23.9 ESE 9 13 1016.0 F 0.0 Fine Mostly clear 30 - - - -
31/08:30am 22.1 SE 6 8 1016.1 - 0.0 - - 10 - - - -
31/08:00am 20.2 ESE 4 5 1016.1 - 0.0 - - 10 - - - -
31/07:30am 18.8 CALM 0 1 1015.9 - 0.0 - Mostly clear 9 - - - -
31/07:00am 17.5 CALM 0 0 1015.8 - 0.0 Shallow fog Mostly clear 1 - - - -
31/06:30am 17.6 ESE 1 1 1015.4 - 0.0 - - 10 - - - -
31/06:00am 17.6 ESE 2 2 1015.0 F 0.0 Fine Mostly clear 25 - - - -
31/05:30am 17.6 ESE 1 2 1014.8 - 0.0 - - 10 - - - -
31/05:00am 17.6 CALM 0 1 1014.9 - 0.0 - - 10 - - - -
31/04:30am 17.6 CALM 0 0 1015.0 - 0.0 - - 10 - - - -
31/04:00am 18.0 CALM 0 0 1014.9 - 0.0 - - 10 - - - -
31/03:30am 18.2 S 1 2 1015.0 - 0.0 - - 10 - - - -
31/03:00am 18.5 SSE 1 2 1015.0 - 0.0 - - 10 - - - -
31/02:30am 18.7 CALM 0 0 1015.0 - 0.0 - - 10 - - - -
31/02:00am 19.0 CALM 0 1 1015.3 - 0.0 - - 10 - - - -
31/01:30am 19.9 SSE 1 2 1015.5 - 0.0 - - 10 - - - -
31/01:00am 20.5 ESE 1 2 1015.7 - 0.0 - - 10 - - - -
31/12:30am 21.0 SE 2 3 1015.8 - 0.0 - - 10 - - - -
31/12:00am 21.5 ESE 3 4 1015.9 - 0.0 - - 10 - - - -
 
Date/Time
EST
Temp

°C
Wind Pressure Rain
since 9am
mm
Weather Cloud Vis
km
Sea
Height
m
Swell
Dir
 
Speed
knots
Gust
knots
hPa Trend Height
m
Period
s
Dir
30/11:30pm 22.3 E 5 8 1016.0 - 0.0 - - 10 - - - -
30/11:00pm 22.7 ESE 6 11 1016.1 - 0.0 - - 10 - - - -
30/10:30pm 23.2 ESE 8 11 1016.1 - 0.0 - - 10 - - - -
30/10:00pm 23.5 E 7 11 1016.1 - 0.0 - - 10 - - - -
30/09:30pm 23.8 E 6 9 1016.0 - 0.0 - - 10 - - - -
30/09:00pm 24.3 ESE 8 12 1015.6 - 0.0 - - 10 - - - -
30/08:30pm 24.3 E 3 5 1015.4 - 0.0 - - 10 - - - -
30/08:00pm 25.1 ESE 5 8 1014.8 - 0.0 - Partly cloudy 10 - - - -
30/07:30pm 25.7 E 7 10 1014.1 - 0.0 - - 10 - - - -
30/07:00pm 26.3 E 7 10 1013.7 - 0.0 - - 10 - - - -
30/06:30pm 27.1 ESE 9 13 1013.4 - 0.0 - - 10 - - - -
30/06:00pm 28.1 E 11 19 1013.0 - 0.0 - Mostly clear 10 - - - -
30/05:30pm 28.7 ESE 10 15 1012.9 - 0.0 - Partly cloudy 10 - - - -
30/05:00pm 29.4 E 12 16 1012.6 - 0.0 - Partly cloudy 10 - - - -
30/04:30pm 30.2 ESE 12 17 1012.3 - 0.0 - Partly cloudy 10 - - - -
30/04:00pm 30.7 ESE 12 18 1012.2 - 0.0 - Partly cloudy 10 - - - -
30/03:30pm 31.0 ESE 13 19 1012.2 - 0.0 - - 10 - - - -
30/03:00pm 30.7 ESE 12 19 1012.3 F 0.0 Smoke Partly cloudy 35 - - - -
30/02:30pm 31.0 E 13 21 1012.6 - 0.0 - Partly cloudy 10 - - - -
30/02:00pm 31.0 E 13 21 1013.1 - 0.0 - Partly cloudy 10 - - - -
30/01:30pm 30.6 ESE 15 20 1013.4 - 0.0 - Partly cloudy 10 - - - -
30/01:00pm 30.9 E 11 22 1013.9 - 0.0 - Partly cloudy 10 - - - -
30/12:30pm 29.4 E 15 22 1014.4 - 0.0 - Partly cloudy 10 - - - -
30/12:00pm 29.3 ESE 15 22 1014.8 F 0.0 Fine Partly cloudy 35 - - - -
30/11:30am 28.4 ESE 18 23 1015.4 - 0.0 - - 10 - - - -
30/11:00am 28.0 ESE 13 19 1016.0 - 0.0 - Mostly clear 10 - - - -
30/10:30am 27.1 E 13 20 1016.4 - 0.0 - - 10 - - - -
30/10:08am 25.8 E 16 26 1016.6 - 0.0 - Mostly clear 10 - - - -
30/10:00am 25.7 ESE 16 24 1016.6 - 0.0 - Mostly clear 10 - - - -
30/09:30am 24.6 ESE 11 17 1016.7 - 0.0 - - 10 - - - -
30/09:00am 23.5 ESE 8 11 1016.7 R 0.0 Fine Mostly clear 35 - - - -
30/08:30am 22.0 ESE 6 10 1016.8 - 0.0 - - 10 - - - -
30/08:00am 20.1 ESE 1 3 1016.6 - 0.0 - - 10 - - - -
30/07:30am 18.0 CALM 0 0 1016.4 - 0.0 - - 10 - - - -
30/07:00am 16.7 CALM 0 1 1016.0 - 0.0 - - 10 - - - -
30/06:30am 17.1 CALM 0 1 1015.7 - 0.0 - - 10 - - - -
30/06:00am 17.4 CALM 0 1 1015.2 S 0.0 Fine Clear 25 - - - -
30/05:30am 17.3 CALM 0 1 1015.1 - 0.0 - - 10 - - - -
30/05:00am 18.8 SE 3 4 1015.0 - 0.0 - - 10 - - - -
30/04:30am 18.9 SSE 2 3 1014.8 - 0.0 - - 10 - - - -
30/04:00am 18.9 SE 3 3 1014.8 - 0.0 - - 10 - - - -
30/03:30am 19.3 SE 3 5 1014.9 - 0.0 - - 10 - - - -
30/03:00am 19.2 ESE 3 4 1014.9 - 0.0 - - 10 - - - -
30/02:30am 19.9 SSE 4 6 1015.3 - 0.0 - - 10 - - - -
30/02:00am 20.0 SE 4 5 1015.6 - 0.0 - - 10 - - - -
30/01:30am 20.5 E 6 8 1015.8 - 0.0 - - 10 - - - -
30/01:00am 21.0 E 7 10 1016.0 - 0.0 - - 10 - - - -
30/12:30am 21.1 E 6 9 1016.2 - 0.0 - - 10 - - - -
30/12:00am 21.2 ESE 5 8 1016.2 - 0.0 - - 10 - - - -
 
Date/Time
EST
Temp

°C
Wind Pressure Rain
since 9am
mm
Weather Cloud Vis
km
Sea
Height
m
Swell
Dir
 
Speed
knots
Gust
knots
hPa Trend Height
m
Period
s
Dir
29/11:30pm 21.6 ESE 5 8 1016.7 - 0.0 - - 10 - - - -
29/11:00pm 22.2 ESE 7 9 1016.7 - 0.0 - - 10 - - - -
29/10:30pm 22.6 E 7 10 1016.7 - 0.0 - - 10 - - - -
29/10:00pm 22.9 ESE 6 9 1016.8 - 0.0 - - 10 - - - -
29/09:30pm 23.5 ESE 6 8 1016.8 - 0.0 - - 10 - - - -
29/09:00pm 24.0 ESE 7 10 1016.7 - 0.0 - - 10 - - - -
29/08:30pm 24.6 ESE 10 14 1016.5 - 0.0 - - 10 - - - -
29/08:00pm 25.1 ESE 9 13 1016.0 - 0.0 - - 10 - - - -
29/07:30pm 25.4 E 7 11 1015.6 - 0.0 - - 10 - - - -
29/07:00pm 25.8 E 6 8 1015.1 - 0.0 - - 10 - - - -
29/06:30pm 26.5 E 7 10 1014.6 - 0.0 - - 10 - - - -
29/06:00pm 27.7 ESE 14 21 1014.2 - 0.0 - - 10 - - - -
29/05:30pm 28.9 ESE 13 19 1013.8 - 0.0 - Partly cloudy 10 - - - -
29/05:00pm 29.6 E 11 16 1013.4 - 0.0 - - 10 - - - -
29/04:30pm 29.6 E 14 23 1013.3 - 0.0 - - 10 - - - -
29/04:00pm 29.5 E 14 22 1013.2 - 0.0 - Partly cloudy 10 - - - -
29/03:30pm 30.3 E 14 21 1013.2 - 0.0 - Partly cloudy 10 - - - -
29/03:00pm 30.1 ESE 16 22 1013.3 F 0.0 Fine Partly cloudy 30 - - - -
29/02:29pm 30.0 ESE 15 25 1013.7 - 0.0 - Mostly clear 10 - - - -
29/02:00pm 29.0 E 15 21 1014.2 - 0.0 - Mostly clear 10 - - - -
29/01:30pm 29.6 ESE 16 25 1014.7 - 0.0 - Partly cloudy 10 - - - -
29/01:00pm 29.9 E 16 26 1015.0 - 0.0 - Partly cloudy 10 - - - -
29/12:53pm 29.4 ESE 16 26 1015.1 - 0.0 - Partly cloudy 10 - - - -
29/12:30pm 29.8 E 15 24 1015.5 - 0.0 - Partly cloudy 10 - - - -
29/12:00pm 28.2 ESE 17 23 1016.0 F 0.0 Fine Mostly cloudy 30 - - - -
29/11:30am 28.4 ESE 15 26 1016.4 - 0.0 - Mostly cloudy 10 - - - -
29/11:06am 26.9 E 16 26 1016.8 - 0.0 - Mostly cloudy 10 - - - -
29/11:00am 26.6 ESE 17 24 1016.8 - 0.0 - Mostly cloudy 10 - - - -
29/10:30am 26.4 E 14 19 1016.9 - 0.0 - Partly cloudy 10 - - - -
29/10:07am 25.8 ESE 15 25 1017.2 - 0.0 - Partly cloudy 10 - - - -
29/10:00am 26.5 ESE 16 23 1017.3 - 0.0 - Partly cloudy 10 - - - -
29/09:30am 25.1 ESE 13 19 1017.3 - 0.0 - - 10 - - - -
29/09:00am 23.9 SE 11 20 1017.2 S 0.0 Fine Partly cloudy 30 - - - -
29/08:30am 22.9 SE 9 14 1017.2 - 0.0 - Partly cloudy 10 - - - -
29/08:00am 22.5 SE 9 13 1016.8 - 0.0 - Mostly clear 10 - - - -
29/07:30am 21.3 SE 6 9 1016.6 - 0.0 - - 10 - - - -
29/07:00am 20.7 SE 8 12 1016.4 - 0.0 - Mostly clear 10 - - - -
29/06:30am 21.5 SE 5 9 1016.2 - 0.0 - Partly cloudy 10 - - - -
29/06:00am 21.3 SE 4 6 1015.9 R 0.0 Fine Mostly cloudy 25 - - - -
29/05:30am 21.4 ESE 7 10 1015.6 - 0.0 - Partly cloudy 10 - - - -
29/05:00am 21.8 ESE 7 10 1015.6 - 0.0 - Partly cloudy 10 - - - -
29/04:30am 21.7 ESE 7 10 1015.4 - 0.0 - Partly cloudy 10 - - - -
29/04:00am 22.1 SE 9 14 1015.3 - 0.0 - Partly cloudy 10 - - - -

Other Formats:

Comma delimited format used in spreadsheet applications
http://www.bom.gov.au/fwo/IDQ60701/IDQ60701.94170.axf

JavaScript Object Notation format (JSON) in row-major order
http://www.bom.gov.au/fwo/IDQ60701/IDQ60701.94170.json